sensor_id;sensor_type;location;lat;lon;timestamp;pressure;altitude;pressure_sealevel;temperature
50206;BMP280;36098;48.390;10.856;2023-11-19T00:00:59;96077.06;;;22.14
50206;BMP280;36098;48.390;10.856;2023-11-19T00:03:25;96071.28;;;22.12
50206;BMP280;36098;48.390;10.856;2023-11-19T00:05:50;96051.28;;;22.11
50206;BMP280;36098;48.390;10.856;2023-11-19T00:08:15;96065.50;;;22.10
50206;BMP280;36098;48.390;10.856;2023-11-19T00:10:41;96051.81;;;22.08
50206;BMP280;36098;48.390;10.856;2023-11-19T00:13:06;96046.81;;;22.06
50206;BMP280;36098;48.390;10.856;2023-11-19T00:15:32;96044.19;;;22.06
50206;BMP280;36098;48.390;10.856;2023-11-19T00:17:57;96041.84;;;22.05
50206;BMP280;36098;48.390;10.856;2023-11-19T00:20:22;96042.88;;;22.04
50206;BMP280;36098;48.390;10.856;2023-11-19T00:22:48;96051.03;;;22.02
50206;BMP280;36098;48.390;10.856;2023-11-19T00:25:15;96036.84;;;21.98
50206;BMP280;36098;48.390;10.856;2023-11-19T00:27:41;96028.44;;;21.96
50206;BMP280;36098;48.390;10.856;2023-11-19T00:30:10;96020.78;;;21.95
50206;BMP280;36098;48.390;10.856;2023-11-19T00:32:36;96022.34;;;21.96
50206;BMP280;36098;48.390;10.856;2023-11-19T00:35:03;96013.94;;;21.94
50206;BMP280;36098;48.390;10.856;2023-11-19T00:37:29;96009.75;;;21.93
50206;BMP280;36098;48.390;10.856;2023-11-19T00:39:54;96000.28;;;21.92
50206;BMP280;36098;48.390;10.856;2023-11-19T00:42:21;96001.34;;;21.91
50206;BMP280;36098;48.390;10.856;2023-11-19T00:44:47;95994.75;;;21.88
50206;BMP280;36098;48.390;10.856;2023-11-19T00:47:12;95988.72;;;21.88
50206;BMP280;36098;48.390;10.856;2023-11-19T00:49:37;95989.50;;;21.88
50206;BMP280;36098;48.390;10.856;2023-11-19T00:52:03;95990.53;;;21.87
50206;BMP280;36098;48.390;10.856;2023-11-19T00:54:28;95978.75;;;21.85
50206;BMP280;36098;48.390;10.856;2023-11-19T00:56:54;95978.75;;;21.85
50206;BMP280;36098;48.390;10.856;2023-11-19T00:59:20;95978.75;;;21.85
50206;BMP280;36098;48.390;10.856;2023-11-19T01:01:46;95971.09;;;21.83
50206;BMP280;36098;48.390;10.856;2023-11-19T01:04:13;95980.03;;;21.82
50206;BMP280;36098;48.390;10.856;2023-11-19T01:06:38;95988.97;;;21.81
50206;BMP280;36098;48.390;10.856;2023-11-19T01:09:04;95976.13;;;21.80
50206;BMP280;36098;48.390;10.856;2023-11-19T01:11:29;95983.19;;;21.79
50206;BMP280;36098;48.390;10.856;2023-11-19T01:13:54;95981.38;;;21.80
50206;BMP280;36098;48.390;10.856;2023-11-19T01:16:20;95991.34;;;21.78
50206;BMP280;36098;48.390;10.856;2023-11-19T01:18:49;95999.22;;;21.78
50206;BMP280;36098;48.390;10.856;2023-11-19T01:21:15;95989.75;;;21.77
50206;BMP280;36098;48.390;10.856;2023-11-19T01:23:41;95982.94;;;21.76
50206;BMP280;36098;48.390;10.856;2023-11-19T01:26:08;95978.72;;;21.75
50206;BMP280;36098;48.390;10.856;2023-11-19T01:28:35;95986.88;;;21.73
50206;BMP280;36098;48.390;10.856;2023-11-19T01:31:00;95968.75;;;21.72
50206;BMP280;36098;48.390;10.856;2023-11-19T01:33:26;95970.59;;;21.71
50206;BMP280;36098;48.390;10.856;2023-11-19T01:35:52;95972.41;;;21.71
50206;BMP280;36098;48.390;10.856;2023-11-19T01:38:17;95959.28;;;21.71
50206;BMP280;36098;48.390;10.856;2023-11-19T01:40:42;95959.53;;;21.69
50206;BMP280;36098;48.390;10.856;2023-11-19T01:43:07;95955.31;;;21.68
50206;BMP280;36098;48.390;10.856;2023-11-19T01:45:37;95947.44;;;21.68
50206;BMP280;36098;48.390;10.856;2023-11-19T01:48:03;95945.09;;;21.67
50206;BMP280;36098;48.390;10.856;2023-11-19T01:50:31;95943.53;;;21.66
50206;BMP280;36098;48.390;10.856;2023-11-19T01:52:57;95938.25;;;21.66
50206;BMP280;36098;48.390;10.856;2023-11-19T01:55:24;95939.31;;;21.65
50206;BMP280;36098;48.390;10.856;2023-11-19T01:57:49;95933.53;;;21.63
50206;BMP280;36098;48.390;10.856;2023-11-19T02:00:15;95936.38;;;21.61
50206;BMP280;36098;48.390;10.856;2023-11-19T02:02:41;95924.28;;;21.60
50206;BMP280;36098;48.390;10.856;2023-11-19T02:05:08;95931.97;;;21.62
50206;BMP280;36098;48.390;10.856;2023-11-19T02:07:34;95915.63;;;21.60
50206;BMP280;36098;48.390;10.856;2023-11-19T02:09:59;95915.63;;;21.60
50206;BMP280;36098;48.390;10.856;2023-11-19T02:12:27;95911.41;;;21.59
50206;BMP280;36098;48.390;10.856;2023-11-19T02:14:59;95930.09;;;21.57
50206;BMP280;36098;48.390;10.856;2023-11-19T02:17:30;95912.47;;;21.58
50206;BMP280;36098;48.390;10.856;2023-11-19T02:19:57;95901.44;;;21.56
50206;BMP280;36098;48.390;10.856;2023-11-19T02:22:23;95910.88;;;21.57
50206;BMP280;36098;48.390;10.856;2023-11-19T02:24:51;95910.88;;;21.57
50206;BMP280;36098;48.390;10.856;2023-11-19T02:27:31;95898.81;;;21.56
50206;BMP280;36098;48.390;10.856;2023-11-19T02:29:58;95897.22;;;21.55
50206;BMP280;36098;48.390;10.856;2023-11-19T02:32:27;95876.22;;;21.55
50206;BMP280;36098;48.390;10.856;2023-11-19T02:34:53;95883.31;;;21.54
50206;BMP280;36098;48.390;10.856;2023-11-19T02:37:18;95875.69;;;21.53
50206;BMP280;36098;48.390;10.856;2023-11-19T02:39:44;95870.44;;;21.53
50206;BMP280;36098;48.390;10.856;2023-11-19T02:42:09;95871.47;;;21.52
50206;BMP280;36098;48.390;10.856;2023-11-19T02:44:36;95859.41;;;21.51
50206;BMP280;36098;48.390;10.856;2023-11-19T02:47:01;95862.84;;;21.51
50206;BMP280;36098;48.390;10.856;2023-11-19T02:49:28;95857.81;;;21.50
50206;BMP280;36098;48.390;10.856;2023-11-19T02:51:53;95864.91;;;21.49
50206;BMP280;36098;48.390;10.856;2023-11-19T02:54:18;95861.50;;;21.49
50206;BMP280;36098;48.390;10.856;2023-11-19T02:56:44;95870.44;;;21.48
50206;BMP280;36098;48.390;10.856;2023-11-19T02:59:13;95866.75;;;21.49
50206;BMP280;36098;48.390;10.856;2023-11-19T03:01:52;95867.00;;;21.47
50206;BMP280;36098;48.390;10.856;2023-11-19T03:04:18;95865.44;;;21.46
50206;BMP280;36098;48.390;10.856;2023-11-19T03:06:46;95877.81;;;21.46
50206;BMP280;36098;48.390;10.856;2023-11-19T03:09:11;95870.16;;;21.44
50206;BMP280;36098;48.390;10.856;2023-11-19T03:11:37;95863.09;;;21.45
50206;BMP280;36098;48.390;10.856;2023-11-19T03:14:02;95866.78;;;21.44
50206;BMP280;36098;48.390;10.856;2023-11-19T03:16:30;95865.97;;;21.43
50206;BMP280;36098;48.390;10.856;2023-11-19T03:18:55;95861.78;;;21.42
50206;BMP280;36098;48.390;10.856;2023-11-19T03:21:31;95866.25;;;21.42
50206;BMP280;36098;48.390;10.856;2023-11-19T03:23:57;95874.13;;;21.42
50206;BMP280;36098;48.390;10.856;2023-11-19T03:26:25;95867.31;;;21.41
50206;BMP280;36098;48.390;10.856;2023-11-19T03:28:50;95869.13;;;21.40
50206;BMP280;36098;48.390;10.856;2023-11-19T03:31:15;95862.31;;;21.39
50206;BMP280;36098;48.390;10.856;2023-11-19T03:33:40;95857.03;;;21.39
50206;BMP280;36098;48.390;10.856;2023-11-19T03:36:06;95856.25;;;21.39
50206;BMP280;36098;48.390;10.856;2023-11-19T03:38:32;95856.53;;;21.38
50206;BMP280;36098;48.390;10.856;2023-11-19T03:40:57;95871.47;;;21.37
50206;BMP280;36098;48.390;10.856;2023-11-19T03:43:23;95867.81;;;21.38
50206;BMP280;36098;48.390;10.856;2023-11-19T03:45:48;95865.47;;;21.37
50206;BMP280;36098;48.390;10.856;2023-11-19T03:48:13;95867.28;;;21.36
50206;BMP280;36098;48.390;10.856;2023-11-19T03:50:41;95862.31;;;21.35
50206;BMP280;36098;48.390;10.856;2023-11-19T03:53:06;95863.06;;;21.35
50206;BMP280;36098;48.390;10.856;2023-11-19T03:55:31;95865.19;;;21.33
50206;BMP280;36098;48.390;10.856;2023-11-19T03:57:57;95880.94;;;21.33
50206;BMP280;36098;48.390;10.856;2023-11-19T04:00:23;95880.94;;;21.33
50206;BMP280;36098;48.390;10.856;2023-11-19T04:02:48;95889.63;;;21.34
50206;BMP280;36098;48.390;10.856;2023-11-19T04:05:14;95889.88;;;21.32
50206;BMP280;36098;48.390;10.856;2023-11-19T04:07:39;95890.69;;;21.33
50206;BMP280;36098;48.390;10.856;2023-11-19T04:10:05;95887.50;;;21.31
50206;BMP280;36098;48.390;10.856;2023-11-19T04:12:30;95896.44;;;21.30
50206;BMP280;36098;48.390;10.856;2023-11-19T04:14:55;95895.66;;;21.29
50206;BMP280;36098;48.390;10.856;2023-11-19T04:17:21;95888.81;;;21.28
50206;BMP280;36098;48.390;10.856;2023-11-19T04:19:48;95890.41;;;21.29
50206;BMP280;36098;48.390;10.856;2023-11-19T04:22:13;95894.09;;;21.28
50206;BMP280;36098;48.390;10.856;2023-11-19T04:24:38;95888.81;;;21.28
50206;BMP280;36098;48.390;10.856;2023-11-19T04:27:04;95887.25;;;21.27
50206;BMP280;36098;48.390;10.856;2023-11-19T04:29:31;95897.22;;;21.25
50206;BMP280;36098;48.390;10.856;2023-11-19T04:31:56;95884.09;;;21.25
50206;BMP280;36098;48.390;10.856;2023-11-19T04:34:22;95873.59;;;21.25
50206;BMP280;36098;48.390;10.856;2023-11-19T04:36:47;95886.19;;;21.23
50206;BMP280;36098;48.390;10.856;2023-11-19T04:39:12;95885.41;;;21.23
50206;BMP280;36098;48.390;10.856;2023-11-19T04:41:49;95891.47;;;21.23
50206;BMP280;36098;48.390;10.856;2023-11-19T04:44:15;95889.88;;;21.22
50206;BMP280;36098;48.390;10.856;2023-11-19T04:46:41;95884.63;;;21.22
50206;BMP280;36098;48.390;10.856;2023-11-19T04:49:09;95884.88;;;21.21
50206;BMP280;36098;48.390;10.856;2023-11-19T04:51:43;95884.06;;;21.20
50206;BMP280;36098;48.390;10.856;2023-11-19T04:54:09;95878.06;;;21.20
50206;BMP280;36098;48.390;10.856;2023-11-19T04:56:38;95885.13;;;21.19
50206;BMP280;36098;48.390;10.856;2023-11-19T04:59:04;95887.75;;;21.19
50206;BMP280;36098;48.390;10.856;2023-11-19T05:01:33;95883.56;;;21.18
50206;BMP280;36098;48.390;10.856;2023-11-19T05:03:58;95873.31;;;21.17
50206;BMP280;36098;48.390;10.856;2023-11-19T05:06:30;95875.94;;;21.17
50206;BMP280;36098;48.390;10.856;2023-11-19T05:08:58;95883.81;;;21.17
50206;BMP280;36098;48.390;10.856;2023-11-19T05:11:24;95881.97;;;21.17
50206;BMP280;36098;48.390;10.856;2023-11-19T05:13:49;95874.38;;;21.16
50206;BMP280;36098;48.390;10.856;2023-11-19T05:16:15;95874.38;;;21.16
50206;BMP280;36098;48.390;10.856;2023-11-19T05:18:41;95887.75;;;21.14
50206;BMP280;36098;48.390;10.856;2023-11-19T05:21:06;95893.81;;;21.15
50206;BMP280;36098;48.390;10.856;2023-11-19T05:23:34;95889.31;;;21.15
50206;BMP280;36098;48.390;10.856;2023-11-19T05:26:03;95882.78;;;21.13
50206;BMP280;36098;48.390;10.856;2023-11-19T05:28:28;95881.97;;;21.12
50206;BMP280;36098;48.390;10.856;2023-11-19T05:30:54;95888.28;;;21.11
50206;BMP280;36098;48.390;10.856;2023-11-19T05:33:20;95896.16;;;21.11
50206;BMP280;36098;48.390;10.856;2023-11-19T05:35:46;95903.22;;;21.11
50206;BMP280;36098;48.390;10.856;2023-11-19T05:38:11;95878.03;;;21.10
50206;BMP280;36098;48.390;10.856;2023-11-19T05:40:36;95880.66;;;21.10
50206;BMP280;36098;48.390;10.856;2023-11-19T05:43:03;95864.13;;;21.09
50206;BMP280;36098;48.390;10.856;2023-11-19T05:45:29;95870.44;;;21.08
50206;BMP280;36098;48.390;10.856;2023-11-19T05:47:54;95875.69;;;21.08
50206;BMP280;36098;48.390;10.856;2023-11-19T05:50:19;95884.59;;;21.07
50206;BMP280;36098;48.390;10.856;2023-11-19T05:52:45;95882.75;;;21.08
50206;BMP280;36098;48.390;10.856;2023-11-19T05:55:11;95882.75;;;21.08
50206;BMP280;36098;48.390;10.856;2023-11-19T05:57:37;95880.41;;;21.06
50206;BMP280;36098;48.390;10.856;2023-11-19T06:00:03;95873.59;;;21.05
50206;BMP280;36098;48.390;10.856;2023-11-19T06:02:32;95881.44;;;21.05
50206;BMP280;36098;48.390;10.856;2023-11-19T06:04:58;95890.09;;;21.06
50206;BMP280;36098;48.390;10.856;2023-11-19T06:07:23;95884.31;;;21.04
50206;BMP280;36098;48.390;10.856;2023-11-19T06:09:48;95887.75;;;21.04
50206;BMP280;36098;48.390;10.856;2023-11-19T06:12:13;95880.94;;;21.03
50206;BMP280;36098;48.390;10.856;2023-11-19T06:14:40;95885.38;;;21.03
50206;BMP280;36098;48.390;10.856;2023-11-19T06:17:05;95887.22;;;21.02
50206;BMP280;36098;48.390;10.856;2023-11-19T06:19:30;95889.84;;;21.02
50206;BMP280;36098;48.390;10.856;2023-11-19T06:21:56;95875.13;;;21.01
50206;BMP280;36098;48.390;10.856;2023-11-19T06:24:21;95881.41;;;21.00
50206;BMP280;36098;48.390;10.856;2023-11-19T06:26:46;95890.34;;;20.99
50206;BMP280;36098;48.390;10.856;2023-11-19T06:29:12;95892.97;;;20.99
50206;BMP280;36098;48.390;10.856;2023-11-19T06:31:40;95895.59;;;20.99
50206;BMP280;36098;48.390;10.856;2023-11-19T06:34:05;95901.91;;;20.98
50206;BMP280;36098;48.390;10.856;2023-11-19T06:36:30;95896.66;;;20.98
50206;BMP280;36098;48.390;10.856;2023-11-19T06:38:56;95889.06;;;20.97
50206;BMP280;36098;48.390;10.856;2023-11-19T06:41:21;95885.63;;;20.96
50206;BMP280;36098;48.390;10.856;2023-11-19T06:43:46;95888.00;;;20.98
50206;BMP280;36098;48.390;10.856;2023-11-19T06:46:18;95897.97;;;20.96
50206;BMP280;36098;48.390;10.856;2023-11-19T06:48:44;95911.09;;;20.96
50206;BMP280;36098;48.390;10.856;2023-11-19T06:51:10;95908.72;;;20.94
50206;BMP280;36098;48.390;10.856;2023-11-19T06:53:35;95910.28;;;20.95
50206;BMP280;36098;48.390;10.856;2023-11-19T06:56:01;95907.94;;;20.94
50206;BMP280;36098;48.390;10.856;2023-11-19T06:58:28;95913.44;;;20.92
50206;BMP280;36098;48.390;10.856;2023-11-19T07:00:53;95905.56;;;20.92
50206;BMP280;36098;48.390;10.856;2023-11-19T07:03:18;95905.03;;;20.90
50206;BMP280;36098;48.390;10.856;2023-11-19T07:05:45;95916.06;;;20.92
50206;BMP280;36098;48.390;10.856;2023-11-19T07:08:10;95915.53;;;20.90
50206;BMP280;36098;48.390;10.856;2023-11-19T07:10:36;95912.91;;;20.90
50206;BMP280;36098;48.390;10.856;2023-11-19T07:13:01;95922.88;;;20.88
50206;BMP280;36098;48.390;10.856;2023-11-19T07:15:27;95923.41;;;20.90
50206;BMP280;36098;48.390;10.856;2023-11-19T07:17:52;95935.50;;;20.91
50206;BMP280;36098;48.390;10.856;2023-11-19T07:20:19;95930.25;;;20.91
50206;BMP280;36098;48.390;10.856;2023-11-19T07:22:44;95936.03;;;20.93
50206;BMP280;36098;48.390;10.856;2023-11-19T07:25:12;95948.91;;;21.00
50206;BMP280;36098;48.390;10.856;2023-11-19T07:27:38;95941.84;;;21.05
50206;BMP280;36098;48.390;10.856;2023-11-19T07:30:05;95950.78;;;21.19
50206;BMP280;36098;48.390;10.856;2023-11-19T07:32:32;95942.69;;;21.45
50206;BMP280;36098;48.390;10.856;2023-11-19T07:34:57;95954.53;;;21.73
50206;BMP280;36098;48.390;10.856;2023-11-19T07:37:23;95953.75;;;22.02
50206;BMP280;36098;48.390;10.856;2023-11-19T07:39:48;95944.00;;;22.23
50206;BMP280;36098;48.390;10.856;2023-11-19T07:42:13;95940.28;;;22.44
50206;BMP280;36098;48.390;10.856;2023-11-19T07:44:38;95935.44;;;22.71
50206;BMP280;36098;48.390;10.856;2023-11-19T07:47:04;95937.91;;;23.06
50206;BMP280;36098;48.390;10.856;2023-11-19T07:49:29;95932.41;;;23.45
50206;BMP280;36098;48.390;10.856;2023-11-19T07:51:56;95927.63;;;23.86
50206;BMP280;36098;48.390;10.856;2023-11-19T07:54:21;95932.06;;;24.19
50206;BMP280;36098;48.390;10.856;2023-11-19T07:56:46;95936.22;;;24.48
50206;BMP280;36098;48.390;10.856;2023-11-19T07:59:12;95935.97;;;24.73
50206;BMP280;36098;48.390;10.856;2023-11-19T08:01:37;95936.22;;;24.95
50206;BMP280;36098;48.390;10.856;2023-11-19T08:04:02;95926.97;;;25.16
50206;BMP280;36098;48.390;10.856;2023-11-19T08:06:28;95929.63;;;25.34
50206;BMP280;36098;48.390;10.856;2023-11-19T08:08:53;95925.38;;;25.52
50206;BMP280;36098;48.390;10.856;2023-11-19T08:11:18;95926.72;;;25.68
50206;BMP280;36098;48.390;10.856;2023-11-19T08:13:45;95931.53;;;25.84
50206;BMP280;36098;48.390;10.856;2023-11-19T08:16:10;95939.00;;;25.96
50206;BMP280;36098;48.390;10.856;2023-11-19T08:18:36;95927.25;;;26.02
50206;BMP280;36098;48.390;10.856;2023-11-19T08:21:01;95928.13;;;26.11
50206;BMP280;36098;48.390;10.856;2023-11-19T08:23:26;95919.53;;;26.19
50206;BMP280;36098;48.390;10.856;2023-11-19T08:25:53;95927.88;;;26.26
50206;BMP280;36098;48.390;10.856;2023-11-19T08:28:19;95927.50;;;26.32
50206;BMP280;36098;48.390;10.856;2023-11-19T08:30:44;95932.09;;;26.40
50206;BMP280;36098;48.390;10.856;2023-11-19T08:33:10;95923.22;;;26.50
50206;BMP280;36098;48.390;10.856;2023-11-19T08:35:35;95921.75;;;26.57
50206;BMP280;36098;48.390;10.856;2023-11-19T08:38:00;95921.34;;;26.64
50206;BMP280;36098;48.390;10.856;2023-11-19T08:40:26;95924.88;;;26.73
50206;BMP280;36098;48.390;10.856;2023-11-19T08:42:52;95925.06;;;26.76
50206;BMP280;36098;48.390;10.856;2023-11-19T08:45:17;95924.28;;;26.76
50206;BMP280;36098;48.390;10.856;2023-11-19T08:47:43;95922.41;;;26.76
50206;BMP280;36098;48.390;10.856;2023-11-19T08:50:10;95924.78;;;26.78
50206;BMP280;36098;48.390;10.856;2023-11-19T08:52:35;95925.25;;;26.80
50206;BMP280;36098;48.390;10.856;2023-11-19T08:55:00;95919.69;;;26.81
50206;BMP280;36098;48.390;10.856;2023-11-19T08:57:26;95920.47;;;26.82
50206;BMP280;36098;48.390;10.856;2023-11-19T08:59:51;95915.63;;;26.84
50206;BMP280;36098;48.390;10.856;2023-11-19T09:02:16;95917.81;;;26.82
50206;BMP280;36098;48.390;10.856;2023-11-19T09:04:41;95924.38;;;26.84
50206;BMP280;36098;48.390;10.856;2023-11-19T09:07:07;95935.47;;;26.86
50206;BMP280;36098;48.390;10.856;2023-11-19T09:09:34;95928.59;;;26.85
50206;BMP280;36098;48.390;10.856;2023-11-19T09:12:01;95930.94;;;26.87
50206;BMP280;36098;48.390;10.856;2023-11-19T09:14:26;95932.50;;;26.88
50206;BMP280;36098;48.390;10.856;2023-11-19T09:16:52;95916.59;;;26.88
50206;BMP280;36098;48.390;10.856;2023-11-19T09:19:18;95923.31;;;26.85
50206;BMP280;36098;48.390;10.856;2023-11-19T09:21:43;95926.84;;;26.81
50206;BMP280;36098;48.390;10.856;2023-11-19T09:24:09;95923.97;;;26.77
50206;BMP280;36098;48.390;10.856;2023-11-19T09:26:34;95919.59;;;26.73
50206;BMP280;36098;48.390;10.856;2023-11-19T09:29:01;95923.13;;;26.68
50206;BMP280;36098;48.390;10.856;2023-11-19T09:31:26;95909.19;;;26.63
50206;BMP280;36098;48.390;10.856;2023-11-19T09:33:52;95899.78;;;26.57
50206;BMP280;36098;48.390;10.856;2023-11-19T09:36:17;95912.13;;;26.48
50206;BMP280;36098;48.390;10.856;2023-11-19T09:38:45;95906.81;;;26.48
50206;BMP280;36098;48.390;10.856;2023-11-19T09:41:11;95900.53;;;26.44
50206;BMP280;36098;48.390;10.856;2023-11-19T09:43:42;95895.84;;;26.41
50206;BMP280;36098;48.390;10.856;2023-11-19T09:46:09;95898.00;;;26.39
50206;BMP280;36098;48.390;10.856;2023-11-19T09:48:39;95891.72;;;26.35
50206;BMP280;36098;48.390;10.856;2023-11-19T09:51:08;95896.81;;;26.31
50206;BMP280;36098;48.390;10.856;2023-11-19T09:53:35;95892.09;;;26.28
50206;BMP280;36098;48.390;10.856;2023-11-19T09:56:02;95892.97;;;26.24
50206;BMP280;36098;48.390;10.856;2023-11-19T09:58:29;95900.72;;;26.20
50206;BMP280;36098;48.390;10.856;2023-11-19T10:00:54;95887.88;;;26.14
50206;BMP280;36098;48.390;10.856;2023-11-19T10:03:20;95892.66;;;26.12
50206;BMP280;36098;48.390;10.856;2023-11-19T10:05:47;95899.63;;;26.08
50206;BMP280;36098;48.390;10.856;2023-11-19T10:08:12;95898.63;;;26.04
50206;BMP280;36098;48.390;10.856;2023-11-19T10:10:39;95889.72;;;26.00
50206;BMP280;36098;48.390;10.856;2023-11-19T10:13:05;95886.59;;;25.98
50206;BMP280;36098;48.390;10.856;2023-11-19T10:15:36;95891.66;;;25.94
50206;BMP280;36098;48.390;10.856;2023-11-19T10:18:02;95883.50;;;25.91
50206;BMP280;36098;48.390;10.856;2023-11-19T10:20:35;95885.19;;;25.87
50206;BMP280;36098;48.390;10.856;2023-11-19T10:23:00;95891.06;;;25.84
50206;BMP280;36098;48.390;10.856;2023-11-19T10:25:27;95890.03;;;25.80
50206;BMP280;36098;48.390;10.856;2023-11-19T10:27:54;95889.06;;;25.76
50206;BMP280;36098;48.390;10.856;2023-11-19T10:30:24;95885.41;;;25.72
50206;BMP280;36098;48.390;10.856;2023-11-19T10:33:10;95899.22;;;25.69
50206;BMP280;36098;48.390;10.856;2023-11-19T10:35:55;95904.84;;;25.62
50206;BMP280;36098;48.390;10.856;2023-11-19T10:38:24;95900.47;;;25.58
50206;BMP280;36098;48.390;10.856;2023-11-19T10:40:51;95903.69;;;25.55
50206;BMP280;36098;48.390;10.856;2023-11-19T10:43:17;95902.66;;;25.51
50206;BMP280;36098;48.390;10.856;2023-11-19T10:45:43;95901.69;;;25.47
50206;BMP280;36098;48.390;10.856;2023-11-19T10:48:08;95898.03;;;25.43
50206;BMP280;36098;48.390;10.856;2023-11-19T10:50:34;95900.78;;;25.38
50206;BMP280;36098;48.390;10.856;2023-11-19T10:53:01;95882.84;;;25.35
50206;BMP280;36098;48.390;10.856;2023-11-19T10:55:33;95885.28;;;25.31
50206;BMP280;36098;48.390;10.856;2023-11-19T10:58:01;95887.41;;;25.29
50206;BMP280;36098;48.390;10.856;2023-11-19T11:00:34;95889.34;;;25.24
50206;BMP280;36098;48.390;10.856;2023-11-19T11:03:01;95875.91;;;25.20
50206;BMP280;36098;48.390;10.856;2023-11-19T11:05:29;95875.69;;;25.17
50206;BMP280;36098;48.390;10.856;2023-11-19T11:07:57;95873.09;;;25.12
50206;BMP280;36098;48.390;10.856;2023-11-19T11:10:26;95876.91;;;25.06
50206;BMP280;36098;48.390;10.856;2023-11-19T11:12:52;95878.53;;;25.02
50206;BMP280;36098;48.390;10.856;2023-11-19T11:15:25;95875.97;;;24.97
50206;BMP280;36098;48.390;10.856;2023-11-19T11:17:51;95863.34;;;24.94
50206;BMP280;36098;48.390;10.856;2023-11-19T11:20:19;95863.91;;;24.91
50206;BMP280;36098;48.390;10.856;2023-11-19T11:22:58;95860.50;;;24.91
50206;BMP280;36098;48.390;10.856;2023-11-19T11:25:55;95860.00;;;24.89
50206;BMP280;36098;48.390;10.856;2023-11-19T11:28:40;95857.34;;;24.89
50206;BMP280;36098;48.390;10.856;2023-11-19T11:36:36;95849.78;;;24.82
50206;BMP280;36098;48.390;10.856;2023-11-19T11:39:03;95859.03;;;24.80
50206;BMP280;36098;48.390;10.856;2023-11-19T11:41:32;95862.25;;;24.77
50206;BMP280;36098;48.390;10.856;2023-11-19T11:43:58;95860.69;;;24.76
50206;BMP280;36098;48.390;10.856;2023-11-19T11:48:59;95863.41;;;24.71
50206;BMP280;36098;48.390;10.856;2023-11-19T11:57:07;95872.16;;;24.66
50206;BMP280;36098;48.390;10.856;2023-11-19T11:59:37;95857.41;;;24.65
50206;BMP280;36098;48.390;10.856;2023-11-19T12:02:03;95869.81;;;24.65
50206;BMP280;36098;48.390;10.856;2023-11-19T12:04:29;95846.84;;;24.65
50206;BMP280;36098;48.390;10.856;2023-11-19T12:07:14;95851.53;;;24.68
50206;BMP280;36098;48.390;10.856;2023-11-19T12:09:47;95856.06;;;24.68
50206;BMP280;36098;48.390;10.856;2023-11-19T12:12:25;95853.69;;;24.66
50206;BMP280;36098;48.390;10.856;2023-11-19T12:15:05;95859.25;;;24.65
50206;BMP280;36098;48.390;10.856;2023-11-19T12:20:05;95856.09;;;24.63
50206;BMP280;36098;48.390;10.856;2023-11-19T12:22:44;95849.53;;;24.60
50206;BMP280;36098;48.390;10.856;2023-11-19T12:25:11;95846.41;;;24.58
50206;BMP280;36098;48.390;10.856;2023-11-19T12:27:41;95848.56;;;24.56
50206;BMP280;36098;48.390;10.856;2023-11-19T12:30:07;95849.88;;;24.54
50206;BMP280;36098;48.390;10.856;2023-11-19T12:32:44;95836.97;;;24.52
50206;BMP280;36098;48.390;10.856;2023-11-19T12:35:10;95826.94;;;24.49
50206;BMP280;36098;48.390;10.856;2023-11-19T12:42:39;95823.88;;;24.42
50206;BMP280;36098;48.390;10.856;2023-11-19T12:45:05;95818.88;;;24.41
50206;BMP280;36098;48.390;10.856;2023-11-19T12:47:31;95816.53;;;24.39
50206;BMP280;36098;48.390;10.856;2023-11-19T12:49:59;95802.03;;;24.37
50206;BMP280;36098;48.390;10.856;2023-11-19T12:52:24;95798.91;;;24.35
50206;BMP280;36098;48.390;10.856;2023-11-19T12:54:50;95798.41;;;24.33
50206;BMP280;36098;48.390;10.856;2023-11-19T12:57:16;95796.34;;;24.30
50206;BMP280;36098;48.390;10.856;2023-11-19T12:59:41;95791.31;;;24.28
50206;BMP280;36098;48.390;10.856;2023-11-19T13:02:06;95796.34;;;24.30
50206;BMP280;36098;48.390;10.856;2023-11-19T13:04:32;95795.53;;;24.29
50206;BMP280;36098;48.390;10.856;2023-11-19T13:06:58;95793.41;;;24.31
50206;BMP280;36098;48.390;10.856;2023-11-19T13:09:27;95789.50;;;24.29
50206;BMP280;36098;48.390;10.856;2023-11-19T13:11:53;95796.91;;;24.27
50206;BMP280;36098;48.390;10.856;2023-11-19T13:14:20;95800.31;;;24.27
50206;BMP280;36098;48.390;10.856;2023-11-19T13:16:45;95790.06;;;24.26
50206;BMP280;36098;48.390;10.856;2023-11-19T13:19:12;95792.41;;;24.27
50206;BMP280;36098;48.390;10.856;2023-11-19T13:21:37;95795.53;;;24.29
50206;BMP280;36098;48.390;10.856;2023-11-19T13:24:07;95781.00;;;24.32
50206;BMP280;36098;48.390;10.856;2023-11-19T13:26:33;95782.56;;;24.33
50206;BMP280;36098;48.390;10.856;2023-11-19T13:28:58;95778.06;;;24.33
50206;BMP280;36098;48.390;10.856;2023-11-19T13:31:23;95770.66;;;24.35
50206;BMP280;36098;48.390;10.856;2023-11-19T13:33:49;95765.09;;;24.37
50206;BMP280;36098;48.390;10.856;2023-11-19T13:36:14;95759.53;;;24.38
50206;BMP280;36098;48.390;10.856;2023-11-19T13:38:39;95751.63;;;24.38
50206;BMP280;36098;48.390;10.856;2023-11-19T13:41:09;95755.34;;;24.37
50206;BMP280;36098;48.390;10.856;2023-11-19T13:43:35;95749.56;;;24.35
50206;BMP280;36098;48.390;10.856;2023-11-19T13:46:01;95749.03;;;24.33
50206;BMP280;36098;48.390;10.856;2023-11-19T13:48:27;95749.03;;;24.33
50206;BMP280;36098;48.390;10.856;2023-11-19T13:50:54;95744.84;;;24.32
50206;BMP280;36098;48.390;10.856;2023-11-19T13:53:19;95745.63;;;24.33
50206;BMP280;36098;48.390;10.856;2023-11-19T13:55:45;95744.06;;;24.32
50206;BMP280;36098;48.390;10.856;2023-11-19T13:58:10;95741.41;;;24.32
50206;BMP280;36098;48.390;10.856;2023-11-19T14:00:36;95739.84;;;24.31
50206;BMP280;36098;48.390;10.856;2023-11-19T14:03:02;95745.91;;;24.31
50206;BMP280;36098;48.390;10.856;2023-11-19T14:05:27;95747.28;;;24.29
50206;BMP280;36098;48.390;10.856;2023-11-19T14:07:53;95746.78;;;24.27
50206;BMP280;36098;48.390;10.856;2023-11-19T14:10:19;95746.25;;;24.25
50206;BMP280;36098;48.390;10.856;2023-11-19T14:12:44;95747.31;;;24.24
50206;BMP280;36098;48.390;10.856;2023-11-19T14:15:10;95738.13;;;24.21